sensor_id;sensor_type;location;lat;lon;timestamp;P1;durP1;ratioP1;P2;durP2;ratioP2
9924;SDS011;5001;51.674;7.868;2022-10-31T00:01:19;24.87;;;11.57;;
9924;SDS011;5001;51.674;7.868;2022-10-31T00:03:58;24.53;;;12.77;;
9924;SDS011;5001;51.674;7.868;2022-10-31T00:06:25;21.13;;;11.10;;
9924;SDS011;5001;51.674;7.868;2022-10-31T00:08:53;14.73;;;9.07;;
9924;SDS011;5001;51.674;7.868;2022-10-31T00:11:22;18.20;;;9.40;;
9924;SDS011;5001;51.674;7.868;2022-10-31T00:13:50;18.00;;;10.43;;
9924;SDS011;5001;51.674;7.868;2022-10-31T00:16:17;19.23;;;10.40;;
9924;SDS011;5001;51.674;7.868;2022-10-31T00:18:53;14.47;;;8.93;;
9924;SDS011;5001;51.674;7.868;2022-10-31T00:21:22;15.50;;;9.10;;
9924;SDS011;5001;51.674;7.868;2022-10-31T00:23:49;13.70;;;9.07;;
9924;SDS011;5001;51.674;7.868;2022-10-31T00:26:16;13.52;;;9.07;;
9924;SDS011;5001;51.674;7.868;2022-10-31T00:28:44;20.60;;;9.38;;
9924;SDS011;5001;51.674;7.868;2022-10-31T00:31:12;20.77;;;9.07;;
9924;SDS011;5001;51.674;7.868;2022-10-31T00:33:40;16.83;;;9.38;;
9924;SDS011;5001;51.674;7.868;2022-10-31T00:36:07;18.75;;;8.80;;
9924;SDS011;5001;51.674;7.868;2022-10-31T00:38:41;14.60;;;8.70;;
9924;SDS011;5001;51.674;7.868;2022-10-31T00:41:09;19.20;;;8.77;;
9924;SDS011;5001;51.674;7.868;2022-10-31T00:43:39;20.13;;;9.00;;
9924;SDS011;5001;51.674;7.868;2022-10-31T00:46:07;16.47;;;9.07;;
9924;SDS011;5001;51.674;7.868;2022-10-31T00:48:34;15.65;;;9.25;;
9924;SDS011;5001;51.674;7.868;2022-10-31T00:51:01;13.77;;;8.73;;
9924;SDS011;5001;51.674;7.868;2022-10-31T00:53:29;14.90;;;8.70;;
9924;SDS011;5001;51.674;7.868;2022-10-31T00:55:56;20.63;;;9.82;;
9924;SDS011;5001;51.674;7.868;2022-10-31T00:58:23;18.20;;;10.03;;
9924;SDS011;5001;51.674;7.868;2022-10-31T01:00:50;13.93;;;9.07;;
9924;SDS011;5001;51.674;7.868;2022-10-31T01:03:27;15.40;;;10.45;;
9924;SDS011;5001;51.674;7.868;2022-10-31T01:06:03;20.23;;;10.90;;
9924;SDS011;5001;51.674;7.868;2022-10-31T01:08:31;18.90;;;9.43;;
9924;SDS011;5001;51.674;7.868;2022-10-31T01:11:02;17.75;;;9.05;;
9924;SDS011;5001;51.674;7.868;2022-10-31T01:13:31;18.95;;;9.30;;
9924;SDS011;5001;51.674;7.868;2022-10-31T01:16:00;14.47;;;9.07;;
9924;SDS011;5001;51.674;7.868;2022-10-31T01:18:31;19.85;;;9.65;;
9924;SDS011;5001;51.674;7.868;2022-10-31T01:21:21;15.47;;;9.60;;
9924;SDS011;5001;51.674;7.868;2022-10-31T01:23:49;19.08;;;10.07;;
9924;SDS011;5001;51.674;7.868;2022-10-31T01:26:17;17.73;;;9.80;;
9924;SDS011;5001;51.674;7.868;2022-10-31T01:28:59;15.33;;;9.73;;
9924;SDS011;5001;51.674;7.868;2022-10-31T01:31:29;16.77;;;9.47;;
9924;SDS011;5001;51.674;7.868;2022-10-31T01:33:58;14.83;;;9.43;;
9924;SDS011;5001;51.674;7.868;2022-10-31T01:36:29;15.73;;;9.07;;
9924;SDS011;5001;51.674;7.868;2022-10-31T01:38:59;16.17;;;9.93;;
9924;SDS011;5001;51.674;7.868;2022-10-31T01:41:31;14.23;;;9.87;;
9924;SDS011;5001;51.674;7.868;2022-10-31T01:46:51;20.70;;;10.53;;
9924;SDS011;5001;51.674;7.868;2022-10-31T01:49:36;15.63;;;10.20;;
9924;SDS011;5001;51.674;7.868;2022-10-31T01:52:06;17.00;;;9.70;;
9924;SDS011;5001;51.674;7.868;2022-10-31T01:54:43;18.23;;;9.20;;
9924;SDS011;5001;51.674;7.868;2022-10-31T01:57:16;17.83;;;11.10;;
9924;SDS011;5001;51.674;7.868;2022-10-31T01:59:47;14.13;;;9.80;;
9924;SDS011;5001;51.674;7.868;2022-10-31T02:02:17;14.37;;;9.83;;
9924;SDS011;5001;51.674;7.868;2022-10-31T02:04:46;15.00;;;9.53;;
9924;SDS011;5001;51.674;7.868;2022-10-31T02:07:18;18.13;;;8.97;;
9924;SDS011;5001;51.674;7.868;2022-10-31T02:09:51;19.13;;;10.07;;
9924;SDS011;5001;51.674;7.868;2022-10-31T02:12:20;15.33;;;9.40;;
9924;SDS011;5001;51.674;7.868;2022-10-31T02:14:47;21.30;;;11.53;;
9924;SDS011;5001;51.674;7.868;2022-10-31T02:17:14;18.07;;;9.67;;
9924;SDS011;5001;51.674;7.868;2022-10-31T02:33:30;16.13;;;9.03;;
9924;SDS011;5001;51.674;7.868;2022-10-31T02:36:11;16.73;;;8.40;;
9924;SDS011;5001;51.674;7.868;2022-10-31T02:44:23;18.77;;;10.63;;
9924;SDS011;5001;51.674;7.868;2022-10-31T02:46:55;17.47;;;10.83;;
9924;SDS011;5001;51.674;7.868;2022-10-31T02:52:13;20.10;;;13.07;;
9924;SDS011;5001;51.674;7.868;2022-10-31T02:54:43;22.07;;;13.97;;
9924;SDS011;5001;51.674;7.868;2022-10-31T02:57:13;23.27;;;12.07;;
9924;SDS011;5001;51.674;7.868;2022-10-31T02:59:46;27.53;;;18.63;;
9924;SDS011;5001;51.674;7.868;2022-10-31T03:02:24;18.57;;;11.73;;
9924;SDS011;5001;51.674;7.868;2022-10-31T03:08:01;22.60;;;15.83;;
9924;SDS011;5001;51.674;7.868;2022-10-31T03:10:47;37.77;;;19.77;;
9924;SDS011;5001;51.674;7.868;2022-10-31T03:15:56;43.83;;;25.90;;
9924;SDS011;5001;51.674;7.868;2022-10-31T03:18:53;41.73;;;22.40;;
9924;SDS011;5001;51.674;7.868;2022-10-31T03:21:30;23.87;;;13.20;;
9924;SDS011;5001;51.674;7.868;2022-10-31T03:24:06;26.43;;;16.27;;
9924;SDS011;5001;51.674;7.868;2022-10-31T03:26:36;19.80;;;11.77;;
9924;SDS011;5001;51.674;7.868;2022-10-31T03:29:08;18.37;;;10.00;;
9924;SDS011;5001;51.674;7.868;2022-10-31T03:31:44;20.50;;;12.67;;
9924;SDS011;5001;51.674;7.868;2022-10-31T03:34:13;18.47;;;10.93;;
9924;SDS011;5001;51.674;7.868;2022-10-31T03:36:44;19.63;;;9.83;;
9924;SDS011;5001;51.674;7.868;2022-10-31T03:39:13;15.50;;;10.60;;
9924;SDS011;5001;51.674;7.868;2022-10-31T03:41:43;14.23;;;9.17;;
9924;SDS011;5001;51.674;7.868;2022-10-31T03:44:14;14.40;;;8.73;;
9924;SDS011;5001;51.674;7.868;2022-10-31T03:46:52;12.97;;;9.40;;
9924;SDS011;5001;51.674;7.868;2022-10-31T03:49:20;13.80;;;8.63;;
9924;SDS011;5001;51.674;7.868;2022-10-31T03:52:02;19.33;;;11.57;;
9924;SDS011;5001;51.674;7.868;2022-10-31T03:54:58;15.60;;;10.17;;
9924;SDS011;5001;51.674;7.868;2022-10-31T03:57:35;18.37;;;10.97;;
9924;SDS011;5001;51.674;7.868;2022-10-31T04:00:13;18.43;;;10.13;;
9924;SDS011;5001;51.674;7.868;2022-10-31T04:03:27;17.37;;;11.10;;
9924;SDS011;5001;51.674;7.868;2022-10-31T04:05:56;20.00;;;15.07;;
9924;SDS011;5001;51.674;7.868;2022-10-31T04:08:28;15.30;;;10.47;;
9924;SDS011;5001;51.674;7.868;2022-10-31T04:10:57;16.73;;;12.17;;
9924;SDS011;5001;51.674;7.868;2022-10-31T04:13:27;17.63;;;11.00;;
9924;SDS011;5001;51.674;7.868;2022-10-31T04:16:02;14.80;;;9.67;;
9924;SDS011;5001;51.674;7.868;2022-10-31T04:18:31;14.23;;;10.23;;
9924;SDS011;5001;51.674;7.868;2022-10-31T04:20:59;19.57;;;9.40;;
9924;SDS011;5001;51.674;7.868;2022-10-31T04:23:30;16.07;;;10.70;;
9924;SDS011;5001;51.674;7.868;2022-10-31T04:26:00;15.03;;;9.80;;
9924;SDS011;5001;51.674;7.868;2022-10-31T04:28:28;17.20;;;10.37;;
9924;SDS011;5001;51.674;7.868;2022-10-31T04:30:55;17.83;;;9.77;;
9924;SDS011;5001;51.674;7.868;2022-10-31T04:33:22;14.10;;;9.37;;
9924;SDS011;5001;51.674;7.868;2022-10-31T04:35:49;15.80;;;9.80;;
9924;SDS011;5001;51.674;7.868;2022-10-31T04:38:17;15.87;;;9.93;;
9924;SDS011;5001;51.674;7.868;2022-10-31T04:40:44;22.47;;;10.00;;
9924;SDS011;5001;51.674;7.868;2022-10-31T04:43:38;17.93;;;11.37;;
9924;SDS011;5001;51.674;7.868;2022-10-31T04:46:05;21.80;;;12.67;;
9924;SDS011;5001;51.674;7.868;2022-10-31T04:48:32;17.07;;;11.90;;
9924;SDS011;5001;51.674;7.868;2022-10-31T04:51:00;19.10;;;12.57;;
9924;SDS011;5001;51.674;7.868;2022-10-31T04:53:28;17.27;;;13.27;;
9924;SDS011;5001;51.674;7.868;2022-10-31T04:56:28;20.87;;;12.90;;
9924;SDS011;5001;51.674;7.868;2022-10-31T04:58:58;18.20;;;11.20;;
9924;SDS011;5001;51.674;7.868;2022-10-31T05:01:28;22.00;;;14.03;;
9924;SDS011;5001;51.674;7.868;2022-10-31T05:03:57;21.63;;;11.47;;
9924;SDS011;5001;51.674;7.868;2022-10-31T05:06:24;18.87;;;11.30;;
9924;SDS011;5001;51.674;7.868;2022-10-31T05:08:51;14.40;;;10.70;;
9924;SDS011;5001;51.674;7.868;2022-10-31T05:11:18;16.33;;;11.03;;
9924;SDS011;5001;51.674;7.868;2022-10-31T05:13:45;18.60;;;11.17;;
9924;SDS011;5001;51.674;7.868;2022-10-31T05:16:12;18.50;;;11.67;;
9924;SDS011;5001;51.674;7.868;2022-10-31T05:18:58;18.73;;;11.77;;
9924;SDS011;5001;51.674;7.868;2022-10-31T05:21:43;16.00;;;9.70;;
9924;SDS011;5001;51.674;7.868;2022-10-31T05:24:10;13.70;;;9.47;;
9924;SDS011;5001;51.674;7.868;2022-10-31T05:26:39;17.43;;;10.23;;
9924;SDS011;5001;51.674;7.868;2022-10-31T05:29:06;13.33;;;10.87;;
9924;SDS011;5001;51.674;7.868;2022-10-31T05:31:34;20.40;;;12.57;;
9924;SDS011;5001;51.674;7.868;2022-10-31T05:34:03;73.50;;;36.83;;
9924;SDS011;5001;51.674;7.868;2022-10-31T05:36:48;55.27;;;27.33;;
9924;SDS011;5001;51.674;7.868;2022-10-31T05:39:18;31.37;;;16.67;;
9924;SDS011;5001;51.674;7.868;2022-10-31T05:41:47;31.53;;;16.60;;
9924;SDS011;5001;51.674;7.868;2022-10-31T05:44:26;23.87;;;13.17;;
9924;SDS011;5001;51.674;7.868;2022-10-31T05:47:11;18.80;;;12.83;;
9924;SDS011;5001;51.674;7.868;2022-10-31T05:49:56;21.00;;;13.23;;
9924;SDS011;5001;51.674;7.868;2022-10-31T05:52:44;18.93;;;12.07;;
9924;SDS011;5001;51.674;7.868;2022-10-31T05:55:22;20.13;;;11.30;;
9924;SDS011;5001;51.674;7.868;2022-10-31T05:58:10;19.47;;;12.20;;
9924;SDS011;5001;51.674;7.868;2022-10-31T06:00:40;18.77;;;11.87;;
9924;SDS011;5001;51.674;7.868;2022-10-31T06:03:09;20.93;;;12.43;;
9924;SDS011;5001;51.674;7.868;2022-10-31T06:05:55;19.30;;;13.00;;
9924;SDS011;5001;51.674;7.868;2022-10-31T06:08:28;17.07;;;12.67;;
9924;SDS011;5001;51.674;7.868;2022-10-31T06:10:58;20.90;;;13.03;;
9924;SDS011;5001;51.674;7.868;2022-10-31T06:13:44;22.07;;;15.23;;
9924;SDS011;5001;51.674;7.868;2022-10-31T06:16:17;22.30;;;15.43;;
9924;SDS011;5001;51.674;7.868;2022-10-31T06:18:45;28.10;;;16.73;;
9924;SDS011;5001;51.674;7.868;2022-10-31T06:21:12;28.00;;;19.47;;
9924;SDS011;5001;51.674;7.868;2022-10-31T06:23:45;25.93;;;15.90;;
9924;SDS011;5001;51.674;7.868;2022-10-31T06:26:31;29.17;;;19.50;;
9924;SDS011;5001;51.674;7.868;2022-10-31T06:28:58;19.23;;;11.80;;
9924;SDS011;5001;51.674;7.868;2022-10-31T06:31:54;19.00;;;11.37;;
9924;SDS011;5001;51.674;7.868;2022-10-31T06:34:21;17.07;;;11.33;;
9924;SDS011;5001;51.674;7.868;2022-10-31T06:36:48;24.10;;;12.23;;
9924;SDS011;5001;51.674;7.868;2022-10-31T06:39:17;17.97;;;12.67;;
9924;SDS011;5001;51.674;7.868;2022-10-31T06:41:46;24.07;;;17.27;;
9924;SDS011;5001;51.674;7.868;2022-10-31T06:44:17;22.03;;;13.90;;
9924;SDS011;5001;51.674;7.868;2022-10-31T06:46:53;21.40;;;13.77;;
9924;SDS011;5001;51.674;7.868;2022-10-31T06:49:40;16.77;;;12.67;;
9924;SDS011;5001;51.674;7.868;2022-10-31T06:52:12;18.33;;;12.93;;
9924;SDS011;5001;51.674;7.868;2022-10-31T06:54:39;20.53;;;12.30;;
9924;SDS011;5001;51.674;7.868;2022-10-31T06:57:06;18.57;;;12.83;;
9924;SDS011;5001;51.674;7.868;2022-10-31T06:59:33;21.97;;;12.10;;
9924;SDS011;5001;51.674;7.868;2022-10-31T07:02:32;20.27;;;12.10;;
9924;SDS011;5001;51.674;7.868;2022-10-31T07:05:00;22.23;;;11.07;;
9924;SDS011;5001;51.674;7.868;2022-10-31T07:07:27;16.20;;;10.80;;
9924;SDS011;5001;51.674;7.868;2022-10-31T07:09:54;18.57;;;10.37;;
9924;SDS011;5001;51.674;7.868;2022-10-31T07:12:36;21.23;;;10.80;;
9924;SDS011;5001;51.674;7.868;2022-10-31T07:15:03;17.00;;;9.63;;
9924;SDS011;5001;51.674;7.868;2022-10-31T07:17:30;14.37;;;9.57;;
9924;SDS011;5001;51.674;7.868;2022-10-31T07:19:59;15.07;;;9.27;;
9924;SDS011;5001;51.674;7.868;2022-10-31T07:22:31;16.93;;;9.43;;
9924;SDS011;5001;51.674;7.868;2022-10-31T07:25:00;15.97;;;10.47;;
9924;SDS011;5001;51.674;7.868;2022-10-31T07:27:45;17.23;;;10.27;;
9924;SDS011;5001;51.674;7.868;2022-10-31T07:30:13;17.07;;;11.20;;
9924;SDS011;5001;51.674;7.868;2022-10-31T07:32:43;16.43;;;10.10;;
9924;SDS011;5001;51.674;7.868;2022-10-31T07:35:17;15.47;;;9.93;;
9924;SDS011;5001;51.674;7.868;2022-10-31T07:37:54;18.23;;;9.97;;
9924;SDS011;5001;51.674;7.868;2022-10-31T07:40:23;18.10;;;9.87;;
9924;SDS011;5001;51.674;7.868;2022-10-31T07:42:51;20.43;;;10.57;;
9924;SDS011;5001;51.674;7.868;2022-10-31T07:45:49;16.10;;;10.30;;
9924;SDS011;5001;51.674;7.868;2022-10-31T07:48:35;15.60;;;10.70;;
9924;SDS011;5001;51.674;7.868;2022-10-31T07:51:21;19.83;;;11.68;;
9924;SDS011;5001;51.674;7.868;2022-10-31T07:54:18;18.02;;;11.57;;
9924;SDS011;5001;51.674;7.868;2022-10-31T07:56:46;20.20;;;11.23;;
9924;SDS011;5001;51.674;7.868;2022-10-31T07:59:13;14.93;;;11.03;;
9924;SDS011;5001;51.674;7.868;2022-10-31T08:01:40;16.07;;;10.67;;
9924;SDS011;5001;51.674;7.868;2022-10-31T08:04:26;15.37;;;11.27;;
9924;SDS011;5001;51.674;7.868;2022-10-31T08:07:11;16.83;;;10.13;;
9924;SDS011;5001;51.674;7.868;2022-10-31T08:09:43;18.73;;;10.93;;
9924;SDS011;5001;51.674;7.868;2022-10-31T08:12:30;18.95;;;11.52;;
9924;SDS011;5001;51.674;7.868;2022-10-31T08:14:57;14.80;;;11.45;;
9924;SDS011;5001;51.674;7.868;2022-10-31T08:17:24;15.17;;;10.37;;
9924;SDS011;5001;51.674;7.868;2022-10-31T08:19:56;23.13;;;12.75;;
9924;SDS011;5001;51.674;7.868;2022-10-31T08:22:29;22.10;;;12.88;;
9924;SDS011;5001;51.674;7.868;2022-10-31T08:24:57;20.80;;;13.13;;
9924;SDS011;5001;51.674;7.868;2022-10-31T08:27:24;19.92;;;12.43;;
9924;SDS011;5001;51.674;7.868;2022-10-31T08:29:53;19.88;;;12.50;;
9924;SDS011;5001;51.674;7.868;2022-10-31T08:32:22;23.05;;;13.95;;
9924;SDS011;5001;51.674;7.868;2022-10-31T08:34:51;22.95;;;12.98;;
9924;SDS011;5001;51.674;7.868;2022-10-31T08:37:37;23.73;;;13.00;;
9924;SDS011;5001;51.674;7.868;2022-10-31T08:40:05;14.98;;;10.48;;
9924;SDS011;5001;51.674;7.868;2022-10-31T08:42:33;18.35;;;11.43;;
9924;SDS011;5001;51.674;7.868;2022-10-31T08:45:01;23.67;;;11.93;;
9924;SDS011;5001;51.674;7.868;2022-10-31T08:47:30;18.00;;;11.82;;
9924;SDS011;5001;51.674;7.868;2022-10-31T08:49:57;26.58;;;13.57;;
9924;SDS011;5001;51.674;7.868;2022-10-31T08:52:24;19.77;;;11.90;;
9924;SDS011;5001;51.674;7.868;2022-10-31T08:55:12;16.33;;;12.05;;
9924;SDS011;5001;51.674;7.868;2022-10-31T08:58:00;30.42;;;13.90;;
9924;SDS011;5001;51.674;7.868;2022-10-31T09:00:38;23.25;;;13.60;;
9924;SDS011;5001;51.674;7.868;2022-10-31T09:03:12;21.38;;;11.93;;
9924;SDS011;5001;51.674;7.868;2022-10-31T09:05:41;17.83;;;11.55;;
9924;SDS011;5001;51.674;7.868;2022-10-31T09:08:11;19.75;;;12.10;;
9924;SDS011;5001;51.674;7.868;2022-10-31T09:10:44;19.60;;;11.32;;
9924;SDS011;5001;51.674;7.868;2022-10-31T09:13:18;18.83;;;11.60;;
9924;SDS011;5001;51.674;7.868;2022-10-31T09:16:06;19.77;;;11.23;;
9924;SDS011;5001;51.674;7.868;2022-10-31T09:18:34;20.98;;;10.75;;
9924;SDS011;5001;51.674;7.868;2022-10-31T09:21:01;16.02;;;10.73;;
9924;SDS011;5001;51.674;7.868;2022-10-31T09:23:30;20.42;;;12.75;;
9924;SDS011;5001;51.674;7.868;2022-10-31T09:25:59;22.50;;;12.13;;
9924;SDS011;5001;51.674;7.868;2022-10-31T09:28:36;21.35;;;12.35;;
9924;SDS011;5001;51.674;7.868;2022-10-31T09:31:07;20.50;;;11.27;;
9924;SDS011;5001;51.674;7.868;2022-10-31T09:33:49;20.75;;;12.18;;
9924;SDS011;5001;51.674;7.868;2022-10-31T09:36:36;19.75;;;12.40;;
9924;SDS011;5001;51.674;7.868;2022-10-31T09:39:11;17.27;;;12.07;;
9924;SDS011;5001;51.674;7.868;2022-10-31T09:46:53;20.38;;;11.35;;
9924;SDS011;5001;51.674;7.868;2022-10-31T09:54:47;23.40;;;13.15;;
9924;SDS011;5001;51.674;7.868;2022-10-31T09:57:23;22.55;;;12.20;;
9924;SDS011;5001;51.674;7.868;2022-10-31T09:59:55;24.27;;;13.77;;
9924;SDS011;5001;51.674;7.868;2022-10-31T10:02:30;17.67;;;13.05;;
9924;SDS011;5001;51.674;7.868;2022-10-31T10:05:11;22.75;;;13.38;;
9924;SDS011;5001;51.674;7.868;2022-10-31T10:25:33;26.02;;;15.82;;
9924;SDS011;5001;51.674;7.868;2022-10-31T10:28:17;23.80;;;16.52;;
9924;SDS011;5001;51.674;7.868;2022-10-31T10:30:50;27.95;;;17.88;;
9924;SDS011;5001;51.674;7.868;2022-10-31T10:33:33;27.58;;;18.02;;
9924;SDS011;5001;51.674;7.868;2022-10-31T10:36:13;28.48;;;17.65;;
9924;SDS011;5001;51.674;7.868;2022-10-31T10:41:46;28.05;;;16.98;;
9924;SDS011;5001;51.674;7.868;2022-10-31T10:44:33;25.63;;;16.73;;
9924;SDS011;5001;51.674;7.868;2022-10-31T10:47:23;30.92;;;17.52;;
9924;SDS011;5001;51.674;7.868;2022-10-31T10:50:07;31.25;;;18.23;;
9924;SDS011;5001;51.674;7.868;2022-10-31T10:53:01;29.70;;;18.13;;
9924;SDS011;5001;51.674;7.868;2022-10-31T10:55:58;28.58;;;18.38;;
9924;SDS011;5001;51.674;7.868;2022-10-31T10:58:46;30.45;;;18.33;;
9924;SDS011;5001;51.674;7.868;2022-10-31T11:01:22;34.97;;;19.27;;
9924;SDS011;5001;51.674;7.868;2022-10-31T11:03:49;33.13;;;19.30;;
9924;SDS011;5001;51.674;7.868;2022-10-31T11:06:25;35.53;;;20.52;;
9924;SDS011;5001;51.674;7.868;2022-10-31T11:08:52;36.63;;;19.35;;
9924;SDS011;5001;51.674;7.868;2022-10-31T11:11:25;36.47;;;20.27;;
9924;SDS011;5001;51.674;7.868;2022-10-31T11:14:00;32.88;;;19.55;;
9924;SDS011;5001;51.674;7.868;2022-10-31T11:16:39;41.58;;;21.63;;
9924;SDS011;5001;51.674;7.868;2022-10-31T11:21:47;34.22;;;21.30;;
9924;SDS011;5001;51.674;7.868;2022-10-31T11:24:23;37.22;;;21.15;;
9924;SDS011;5001;51.674;7.868;2022-10-31T11:27:16;37.85;;;21.17;;
9924;SDS011;5001;51.674;7.868;2022-10-31T11:29:43;35.03;;;21.15;;
9924;SDS011;5001;51.674;7.868;2022-10-31T11:32:16;36.50;;;21.27;;
9924;SDS011;5001;51.674;7.868;2022-10-31T11:34:53;33.63;;;21.42;;
9924;SDS011;5001;51.674;7.868;2022-10-31T11:37:28;35.95;;;20.92;;
9924;SDS011;5001;51.674;7.868;2022-10-31T11:39:59;38.80;;;20.77;;
9924;SDS011;5001;51.674;7.868;2022-10-31T11:42:30;34.78;;;21.58;;
9924;SDS011;5001;51.674;7.868;2022-10-31T11:45:17;35.25;;;21.27;;
9924;SDS011;5001;51.674;7.868;2022-10-31T11:48:14;43.60;;;20.70;;
9924;SDS011;5001;51.674;7.868;2022-10-31T11:50:56;35.85;;;20.27;;
9924;SDS011;5001;51.674;7.868;2022-10-31T11:53:26;29.42;;;20.38;;
9924;SDS011;5001;51.674;7.868;2022-10-31T11:56:03;34.13;;;20.48;;
9924;SDS011;5001;51.674;7.868;2022-10-31T11:59:03;38.90;;;20.38;;
9924;SDS011;5001;51.674;7.868;2022-10-31T12:01:32;33.03;;;19.73;;
9924;SDS011;5001;51.674;7.868;2022-10-31T12:04:06;34.05;;;19.65;;
9924;SDS011;5001;51.674;7.868;2022-10-31T12:06:35;32.80;;;18.65;;
9924;SDS011;5001;51.674;7.868;2022-10-31T12:09:10;32.25;;;20.10;;
9924;SDS011;5001;51.674;7.868;2022-10-31T12:25:50;41.30;;;21.35;;
9924;SDS011;5001;51.674;7.868;2022-10-31T12:59:17;39.63;;;21.67;;
9924;SDS011;5001;51.674;7.868;2022-10-31T13:02:10;37.63;;;21.35;;
9924;SDS011;5001;51.674;7.868;2022-10-31T13:05:36;35.15;;;20.83;;
9924;SDS011;5001;51.674;7.868;2022-10-31T13:07:43;37.75;;;21.42;;
9924;SDS011;5001;51.674;7.868;2022-10-31T13:10:29;36.60;;;20.98;;
9924;SDS011;5001;51.674;7.868;2022-10-31T13:13:02;34.55;;;20.98;;
9924;SDS011;5001;51.674;7.868;2022-10-31T13:15:42;39.15;;;21.30;;
9924;SDS011;5001;51.674;7.868;2022-10-31T13:18:18;33.03;;;21.15;;
9924;SDS011;5001;51.674;7.868;2022-10-31T13:20:54;34.60;;;20.80;;
9924;SDS011;5001;51.674;7.868;2022-10-31T13:23:27;35.15;;;20.67;;
9924;SDS011;5001;51.674;7.868;2022-10-31T13:26:32;31.63;;;19.98;;
9924;SDS011;5001;51.674;7.868;2022-10-31T13:31:56;34.58;;;20.95;;
9924;SDS011;5001;51.674;7.868;2022-10-31T13:34:28;37.80;;;19.98;;
9924;SDS011;5001;51.674;7.868;2022-10-31T13:39:49;36.58;;;21.48;;
9924;SDS011;5001;51.674;7.868;2022-10-31T13:45:48;33.50;;;20.00;;
9924;SDS011;5001;51.674;7.868;2022-10-31T13:48:18;30.60;;;19.73;;
9924;SDS011;5001;51.674;7.868;2022-10-31T13:50:55;30.73;;;19.55;;
9924;SDS011;5001;51.674;7.868;2022-10-31T13:53:35;32.78;;;19.98;;
9924;SDS011;5001;51.674;7.868;2022-10-31T13:56:03;34.63;;;20.70;;
9924;SDS011;5001;51.674;7.868;2022-10-31T13:58:34;29.73;;;20.17;;
9924;SDS011;5001;51.674;7.868;2022-10-31T14:03:42;29.92;;;19.70;;
9924;SDS011;5001;51.674;7.868;2022-10-31T14:09:30;31.67;;;19.77;;
9924;SDS011;5001;51.674;7.868;2022-10-31T14:12:08;34.80;;;20.38;;
9924;SDS011;5001;51.674;7.868;2022-10-31T14:14:47;37.17;;;20.05;;
9924;SDS011;5001;51.674;7.868;2022-10-31T14:17:24;34.22;;;20.77;;
9924;SDS011;5001;51.674;7.868;2022-10-31T14:20:02;45.63;;;20.77;;
9924;SDS011;5001;51.674;7.868;2022-10-31T14:22:48;29.63;;;19.10;;
9924;SDS011;5001;51.674;7.868;2022-10-31T14:28:03;33.67;;;21.58;;
9924;SDS011;5001;51.674;7.868;2022-10-31T14:30:52;30.98;;;20.50;;
9924;SDS011;5001;51.674;7.868;2022-10-31T14:33:20;36.00;;;20.73;;
9924;SDS011;5001;51.674;7.868;2022-10-31T14:39:08;34.78;;;21.35;;
9924;SDS011;5001;51.674;7.868;2022-10-31T14:44:17;34.45;;;21.67;;
9924;SDS011;5001;51.674;7.868;2022-10-31T14:52:44;33.30;;;21.17;;
9924;SDS011;5001;51.674;7.868;2022-10-31T14:55:16;33.95;;;21.98;;
9924;SDS011;5001;51.674;7.868;2022-10-31T14:57:48;32.03;;;22.25;;
9924;SDS011;5001;51.674;7.868;2022-10-31T15:00:23;36.63;;;21.30;;
9924;SDS011;5001;51.674;7.868;2022-10-31T15:05:35;34.50;;;21.73;;
9924;SDS011;5001;51.674;7.868;2022-10-31T15:08:31;35.38;;;22.90;;
9924;SDS011;5001;51.674;7.868;2022-10-31T15:11:24;31.50;;;22.33;;
9924;SDS011;5001;51.674;7.868;2022-10-31T15:13:55;31.60;;;20.52;;
9924;SDS011;5001;51.674;7.868;2022-10-31T15:16:25;38.72;;;24.38;;
9924;SDS011;5001;51.674;7.868;2022-10-31T15:19:06;30.00;;;21.48;;
9924;SDS011;5001;51.674;7.868;2022-10-31T15:21:36;38.33;;;23.35;;
9924;SDS011;5001;51.674;7.868;2022-10-31T15:24:12;38.83;;;23.20;;
9924;SDS011;5001;51.674;7.868;2022-10-31T15:26:44;39.90;;;24.40;;
9924;SDS011;5001;51.674;7.868;2022-10-31T15:29:15;31.00;;;21.25;;
9924;SDS011;5001;51.674;7.868;2022-10-31T15:31:53;38.53;;;23.58;;
9924;SDS011;5001;51.674;7.868;2022-10-31T15:34:42;34.17;;;22.90;;
9924;SDS011;5001;51.674;7.868;2022-10-31T15:37:16;31.08;;;22.42;;
9924;SDS011;5001;51.674;7.868;2022-10-31T15:39:45;30.08;;;20.23;;
9924;SDS011;5001;51.674;7.868;2022-10-31T15:42:15;30.10;;;20.85;;
9924;SDS011;5001;51.674;7.868;2022-10-31T15:45:05;37.13;;;22.17;;
9924;SDS011;5001;51.674;7.868;2022-10-31T15:47:35;32.63;;;20.02;;
9924;SDS011;5001;51.674;7.868;2022-10-31T15:50:05;33.03;;;20.77;;
9924;SDS011;5001;51.674;7.868;2022-10-31T15:52:46;30.13;;;20.65;;
9924;SDS011;5001;51.674;7.868;2022-10-31T15:55:20;28.67;;;20.25;;
9924;SDS011;5001;51.674;7.868;2022-10-31T15:57:51;30.90;;;19.77;;
9924;SDS011;5001;51.674;7.868;2022-10-31T16:03:41;33.80;;;20.67;;
9924;SDS011;5001;51.674;7.868;2022-10-31T16:05:49;31.25;;;20.90;;
9924;SDS011;5001;51.674;7.868;2022-10-31T16:13:27;37.70;;;22.48;;
9924;SDS011;5001;51.674;7.868;2022-10-31T16:16:00;33.20;;;20.85;;
9924;SDS011;5001;51.674;7.868;2022-10-31T16:18:49;37.85;;;21.77;;
9924;SDS011;5001;51.674;7.868;2022-10-31T16:21:25;34.10;;;22.10;;
9924;SDS011;5001;51.674;7.868;2022-10-31T16:23:59;31.52;;;22.25;;
9924;SDS011;5001;51.674;7.868;2022-10-31T16:26:32;34.22;;;21.35;;
9924;SDS011;5001;51.674;7.868;2022-10-31T16:28:59;34.22;;;22.00;;
9924;SDS011;5001;51.674;7.868;2022-10-31T16:31:38;38.55;;;21.50;;
9924;SDS011;5001;51.674;7.868;2022-10-31T16:34:17;39.35;;;20.98;;
9924;SDS011;5001;51.674;7.868;2022-10-31T16:36:52;36.92;;;21.23;;
9924;SDS011;5001;51.674;7.868;2022-10-31T16:39:19;35.67;;;20.90;;
9924;SDS011;5001;51.674;7.868;2022-10-31T16:41:47;34.45;;;20.00;;
9924;SDS011;5001;51.674;7.868;2022-10-31T16:46:45;31.90;;;19.52;;
9924;SDS011;5001;51.674;7.868;2022-10-31T16:49:13;36.08;;;19.35;;
9924;SDS011;5001;51.674;7.868;2022-10-31T16:51:41;36.05;;;21.10;;
9924;SDS011;5001;51.674;7.868;2022-10-31T16:54:09;30.35;;;19.38;;
9924;SDS011;5001;51.674;7.868;2022-10-31T16:56:37;36.35;;;20.63;;
9924;SDS011;5001;51.674;7.868;2022-10-31T16:59:06;29.77;;;19.65;;
9924;SDS011;5001;51.674;7.868;2022-10-31T17:01:41;31.65;;;19.67;;
9924;SDS011;5001;51.674;7.868;2022-10-31T17:04:12;40.75;;;19.92;;
9924;SDS011;5001;51.674;7.868;2022-10-31T17:06:41;30.60;;;19.48;;
9924;SDS011;5001;51.674;7.868;2022-10-31T17:09:08;26.38;;;18.98;;
9924;SDS011;5001;51.674;7.868;2022-10-31T17:11:36;33.88;;;18.05;;
9924;SDS011;5001;51.674;7.868;2022-10-31T17:14:10;25.10;;;17.83;;
9924;SDS011;5001;51.674;7.868;2022-10-31T17:16:37;30.10;;;18.00;;
9924;SDS011;5001;51.674;7.868;2022-10-31T17:19:04;33.40;;;17.70;;
9924;SDS011;5001;51.674;7.868;2022-10-31T17:21:31;31.10;;;17.20;;
9924;SDS011;5001;51.674;7.868;2022-10-31T17:23:58;28.90;;;17.60;;
9924;SDS011;5001;51.674;7.868;2022-10-31T17:26:25;30.33;;;18.58;;
9924;SDS011;5001;51.674;7.868;2022-10-31T17:28:52;24.88;;;15.88;;
9924;SDS011;5001;51.674;7.868;2022-10-31T17:31:20;34.78;;;18.58;;
9924;SDS011;5001;51.674;7.868;2022-10-31T17:33:58;27.45;;;18.95;;
9924;SDS011;5001;51.674;7.868;2022-10-31T17:36:28;28.70;;;16.88;;
9924;SDS011;5001;51.674;7.868;2022-10-31T17:38:56;29.00;;;18.63;;
9924;SDS011;5001;51.674;7.868;2022-10-31T17:41:23;22.95;;;16.40;;
9924;SDS011;5001;51.674;7.868;2022-10-31T17:43:54;28.75;;;15.65;;
9924;SDS011;5001;51.674;7.868;2022-10-31T17:46:22;25.48;;;15.88;;
9924;SDS011;5001;51.674;7.868;2022-10-31T17:48:49;24.42;;;15.93;;
9924;SDS011;5001;51.674;7.868;2022-10-31T17:51:16;33.15;;;18.58;;
9924;SDS011;5001;51.674;7.868;2022-10-31T17:53:43;26.52;;;16.08;;
9924;SDS011;5001;51.674;7.868;2022-10-31T17:56:10;29.55;;;18.00;;
9924;SDS011;5001;51.674;7.868;2022-10-31T17:58:37;25.85;;;15.35;;
9924;SDS011;5001;51.674;7.868;2022-10-31T18:01:11;24.35;;;15.50;;
9924;SDS011;5001;51.674;7.868;2022-10-31T18:03:40;23.27;;;15.35;;